My webcam more information My webcam


Thunder radar more information blitzortung!


Rain radar more information rain snow radar


Visit our other weather sites:

Template documentation
and downloads

And another site


You find our weather info also at:

Weather Underground

AWEKAS

Citizen Weather Observer Program (CWOP)

HAMweather, WeatherForYou, PWS Weather


Nearby METAR Reports

   
KTAN - Taunton, Massachusetts, USA
Distance from station: W 5 mi
Updated: Jan 21 2018 1:52 am
Clear  
Clear  
   Wind: Calm
Wind: Calm
Temperature: 28.4°F
Dew Point: 24.8°F
Humidity: 86%
Barometer: 29.99 inHg
Clouds: Clear
Visibility: 10 mi
Cloud details: Clear
KTAN 210652Z AUTO 00000KT 10SM CLR M02/M04 A2999 RMK AO2 SLP155 T10221044 $
KPYM - Plymouth, Massachusetts, USA
Distance from station: ENE 10 mi
Updated: Jan 21 2018 1:52 am
Clear  
Clear  
   Wind: WSW 3.5 mph
Wind: WSW 3.5 mph
Temperature: 30.2°F
Wind Chill: 26.6°F
Dew Point: 24.8°F
Humidity: 80%
Barometer: 29.99 inHg
Clouds: Clear
Visibility: 10 mi
Cloud details: Clear
KPYM 210652Z AUTO 24003KT 10SM CLR M01/M04 A2999 RMK AO2 SLP157 T10061039
KEWB - New Bedford, Massachusetts, USA
Distance from station: S 14 mi
Updated: Jan 21 2018 12:53 am
Clear  
Clear  
   Wind: South 3.5 mph
Wind: South 3.5 mph
Temperature: 28.4°F
Wind Chill: 24.8°F
Dew Point: 26.6°F
Humidity: 93%
Barometer: 29.97 inHg
Clouds: Clear
Visibility: 10 mi
Cloud details: Clear
KEWB 210553Z AUTO 19003KT 10SM CLR M02/M03 A2997 RMK AO2 SLP150 T10171033 10067 21022 51008
KFMH - Falmouth/Otis Ab, Massachusetts, USA
Distance from station: SE 27 mi
Updated: Jan 21 2018 1:55 am
Clear  
Clear  
   Wind: WSW 6.9 mph
Wind: WSW 6.9 mph
Temperature: 32°F
Wind Chill: 26.6°F
Dew Point: 26.6°F
Humidity: 80%
Barometer: 30.01 inHg
Clouds: Clear
Visibility: 10 mi
Cloud details: Clear
KFMH 210655Z AUTO 25006KT 10SM CLR M00/M03 A3001 RMK AO2
KBOS - Boston, Massachusetts, USA
Distance from station: N 33 mi
Updated: Jan 21 2018 1:54 am
Mostly Cloudy  
Mostly Cloudy  
   Wind: West 8.1 mph
Wind: West 8.1 mph
Temperature: 39.2°F
Wind Chill: 33.8°F
Dew Point: 28.4°F
Humidity: 65%
Barometer: 29.98 inHg
Clouds: Mostly Cloudy
Visibility: 10 mi
Cloud details: Mostly Cloudy 22000 ft
KBOS 210654Z 28007KT 10SM BKN220 04/M02 A2998 RMK AO2 SLP150 T00441022
KHYA - Hyannis, Massachusetts, USA
Distance from station: ESE 37 mi
Updated: Jan 21 2018 1:56 am
Clear  
Clear  
   Wind: WSW 6.9 mph
Wind: WSW 6.9 mph
Temperature: 32°F
Wind Chill: 26.6°F
Dew Point: 26.6°F
Humidity: 80%
Barometer: 29.98 inHg
Clouds: Clear
Visibility: 10 mi
Cloud details: Clear
KHYA 210656Z AUTO 24006KT 10SM CLR 00/M03 A2998 RMK AO2 SLP154 T00001033 $
KMVY - Marthas Vineyard, Massachusetts, USA
Distance from station: SSE 37 mi
Updated: Jan 21 2018 1:53 am
Clear  
Clear  
   Wind: West 8.1 mph
Wind: West 8.1 mph
Barometer: 30 inHg
Clouds: Clear
Visibility: 10 mi
Cloud details: Clear
KMVY 210653Z AUTO 28007KT 10SM CLR A3000 RMK AO2 SLPNO $
KCQX - Chatham, Massachusetts, USA
Distance from station: ESE 49 mi
Updated: Jan 21 2018 1:52 am
Clear  
Clear  
   Wind: WSW 4.6 mph
Wind: WSW 4.6 mph
Temperature: 35.6°F
Wind Chill: 32°F
Dew Point: 28.4°F
Humidity: 75%
Barometer: 30 inHg
Clouds: Clear
Visibility: 10 mi
Cloud details: Clear
KCQX 210652Z AUTO 25004KT 10SM CLR 02/M02 A3000 RMK AO2 SLP160 T00221022 TSNO
 

Script developed by  Saratoga-weather.org Adapted for the template by  Weerstation Leuven

Equipment we use:

Weather-station
Davis Vantage Vue

Weather-program
Meteobridge

Weather-server
TP-LINK TL-MR3020

Provider
Web Hosting By

Davis Vantage Vue

Meteobridge

TP-LINK TL-MR3020

Web Hosting By